Time;durP1;ratioP1;P1;durP2;ratioP2;P2;SDS_P1;SDS_P2;PMS_P1;PMS_P2;Temp;Humidity;BMP_temperature;BMP_pressure;BME280_temperature;BME280_humidity;BME280_pressure;Samples;Min_cycle;Max_cycle;Signal;HPM_P1;HPM_P2
2021/06/06 00:00:00;;;;;;;31.17;27.60;;;14.10;85.00;;;;;;5046334;28;20075;-77
2021/06/06 00:02:25;;;;;;;31.63;27.05;;;14.10;85.00;;;;;;5045453;28;20396;-77
2021/06/06 00:04:51;;;;;;;29.88;26.42;;;14.10;85.00;;;;;;5046268;28;20037;-77
2021/06/06 00:07:17;;;;;;;31.05;27.42;;;14.10;85.00;;;;;;5047033;28;20025;-77
2021/06/06 00:09:42;;;;;;;30.52;26.25;;;14.10;85.10;;;;;;5047115;28;20033;-77
2021/06/06 00:12:09;;;;;;;30.35;26.75;;;14.10;85.20;;;;;;5048781;28;20037;-77
2021/06/06 00:14:37;;;;;;;31.83;27.95;;;14.10;85.20;;;;;;5041005;28;20068;-77
2021/06/06 00:17:08;;;;;;;29.33;26.17;;;14.10;85.20;;;;;;5045358;28;20411;-77
2021/06/06 00:19:35;;;;;;;29.75;26.42;;;14.10;85.40;;;;;;5046267;28;20485;-76
2021/06/06 00:22:01;;;;;;;29.75;26.40;;;14.10;85.40;;;;;;5046947;28;20084;-76
2021/06/06 00:24:29;;;;;;;30.42;27.10;;;14.10;85.40;;;;;;5047635;28;20037;-77
2021/06/06 00:26:55;;;;;;;31.17;25.58;;;14.00;85.20;;;;;;5046795;28;20033;-77
2021/06/06 00:29:22;;;;;;;32.05;28.48;;;13.90;85.50;;;;;;5047934;28;20041;-77
2021/06/06 00:31:48;;;;;;;32.42;28.45;;;13.80;85.40;;;;;;5043412;28;20036;-76
2021/06/06 00:34:13;;;;;;;33.17;28.58;;;13.70;85.90;;;;;;5047081;28;20037;-77
2021/06/06 00:36:39;;;;;;;31.23;27.70;;;13.60;86.10;;;;;;5044432;28;20029;-77
2021/06/06 00:39:05;;;;;;;31.65;27.70;;;13.60;86.10;;;;;;5047094;28;20043;-77
2021/06/06 00:41:32;;;;;;;30.33;27.13;;;13.60;86.10;;;;;;5047092;28;20059;-76
2021/06/06 00:43:58;;;;;;;30.92;27.63;;;13.60;86.30;;;;;;5047878;28;20033;-76
2021/06/06 00:46:26;;;;;;;31.15;27.20;;;13.50;86.30;;;;;;5045081;28;20037;-76
2021/06/06 00:48:52;;;;;;;29.95;26.17;;;13.50;86.30;;;;;;5046690;28;20479;-76
2021/06/06 00:51:22;;;;;;;29.00;25.85;;;13.40;86.30;;;;;;5048422;28;20044;-76
2021/06/06 00:54:32;;;;;;;28.95;25.48;;;13.40;86.40;;;;;;5045641;28;20520;-76
2021/06/06 00:57:04;;;;;;;31.80;26.00;;;13.30;86.30;;;;;;5047192;28;20043;-76
2021/06/06 00:59:31;;;;;;;30.50;26.27;;;13.30;86.30;;;;;;5045786;28;20049;-77
2021/06/06 01:01:57;;;;;;;30.52;26.85;;;13.20;86.30;;;;;;5042264;28;20026;-76
2021/06/06 01:04:23;;;;;;;33.97;28.17;;;13.20;86.40;;;;;;5044153;28;20054;-77
2021/06/06 01:06:51;;;;;;;31.45;27.35;;;13.20;86.50;;;;;;5041534;28;20118;-76
2021/06/06 01:09:19;;;;;;;35.22;28.98;;;13.10;86.50;;;;;;5040190;28;20030;-77
2021/06/06 01:12:08;;;;;;;31.70;26.98;;;13.10;86.60;;;;;;5044667;28;20041;-77
2021/06/06 01:14:40;;;;;;;34.72;29.45;;;13.00;86.60;;;;;;5043155;28;20067;-76
2021/06/06 01:17:31;;;;;;;33.05;29.45;;;13.00;86.70;;;;;;5042276;28;20028;-77
2021/06/06 01:20:11;;;;;;;33.17;28.50;;;13.00;86.80;;;;;;5022171;28;20110;-77
2021/06/06 01:22:53;;;;;;;33.08;29.27;;;13.00;86.70;;;;;;5044627;28;20381;-76
2021/06/06 01:25:42;;;;;;;31.83;28.27;;;12.90;86.60;;;;;;5045004;28;20029;-76
2021/06/06 01:28:26;;;;;;;32.75;28.95;;;12.90;86.60;;;;;;5042061;28;20451;-76
2021/06/06 01:30:56;;;;;;;34.00;28.95;;;12.80;86.70;;;;;;5044761;28;20507;-76
2021/06/06 01:33:27;;;;;;;32.20;28.70;;;12.80;86.70;;;;;;5043686;28;20536;-76
2021/06/06 01:36:01;;;;;;;31.92;27.55;;;12.70;86.70;;;;;;5046901;28;20057;-77
2021/06/06 01:38:35;;;;;;;31.57;28.20;;;12.70;86.60;;;;;;5047335;28;20548;-76
2021/06/06 01:41:08;;;;;;;32.65;29.02;;;12.70;86.50;;;;;;5041063;28;20283;-76
2021/06/06 01:43:38;;;;;;;33.50;28.92;;;12.60;86.50;;;;;;5044599;28;20029;-76
2021/06/06 01:46:09;;;;;;;31.90;27.67;;;12.60;86.30;;;;;;5044397;28;20041;-76
2021/06/06 01:48:39;;;;;;;35.67;29.65;;;12.60;86.30;;;;;;5043527;28;20033;-76
2021/06/06 01:51:08;;;;;;;32.75;28.98;;;12.60;86.30;;;;;;5041876;28;20033;-76
2021/06/06 01:53:36;;;;;;;35.00;29.45;;;12.50;86.40;;;;;;5037118;28;20449;-76
2021/06/06 01:56:04;;;;;;;37.55;31.05;;;12.50;86.40;;;;;;5046306;28;20045;-76
2021/06/06 01:58:31;;;;;;;38.75;31.60;;;12.50;86.60;;;;;;5047123;28;20057;-76
2021/06/06 02:01:11;;;;;;;39.15;33.83;;;12.50;86.80;;;;;;5046973;28;20071;-76
2021/06/06 02:03:37;;;;;;;37.35;32.47;;;12.40;86.90;;;;;;5043642;28;20350;-76
2021/06/06 02:06:03;;;;;;;38.60;32.65;;;12.40;87.00;;;;;;5045389;28;20068;-76
2021/06/06 02:08:33;;;;;;;34.40;30.60;;;12.40;86.90;;;;;;5050222;28;20104;-76
2021/06/06 02:11:21;;;;;;;38.05;31.75;;;12.40;86.90;;;;;;5046411;28;20052;-76
2021/06/06 02:14:02;;;;;;;37.38;33.40;;;12.40;86.90;;;;;;5040762;28;20504;-76
2021/06/06 02:16:33;;;;;;;36.50;31.17;;;12.40;86.90;;;;;;5044681;28;20123;-76
2021/06/06 02:18:59;;;;;;;34.72;30.77;;;12.40;87.00;;;;;;5047092;28;20033;-76
2021/06/06 02:21:26;;;;;;;33.22;29.63;;;12.40;87.00;;;;;;5047930;28;20033;-76
2021/06/06 02:23:51;;;;;;;35.58;31.67;;;12.20;86.90;;;;;;5048114;28;20118;-76
2021/06/06 02:26:23;;;;;;;37.95;32.42;;;12.20;86.90;;;;;;5045810;28;20068;-76
2021/06/06 02:28:59;;;;;;;34.63;30.30;;;12.20;86.90;;;;;;5047950;28;20083;-76
2021/06/06 02:31:37;;;;;;;32.70;29.20;;;12.20;87.00;;;;;;5043458;28;20053;-76
2021/06/06 02:34:07;;;;;;;36.08;30.88;;;12.10;87.00;;;;;;5041715;28;20033;-77
2021/06/06 02:36:36;;;;;;;35.42;31.27;;;12.10;87.00;;;;;;5048055;28;20075;-77
2021/06/06 02:39:26;;;;;;;37.70;31.70;;;12.10;87.10;;;;;;5048810;28;20105;-77
2021/06/06 02:41:58;;;;;;;36.67;30.65;;;12.10;87.20;;;;;;5046306;28;20045;-76
2021/06/06 02:44:45;;;;;;;35.25;30.35;;;12.10;87.20;;;;;;5045275;28;20036;-76
2021/06/06 02:47:12;;;;;;;34.38;30.58;;;12.10;87.20;;;;;;5044322;28;20032;-76
2021/06/06 02:49:43;;;;;;;34.88;29.92;;;12.00;87.30;;;;;;5047737;28;20033;-76
2021/06/06 02:52:16;;;;;;;34.13;30.33;;;12.00;87.30;;;;;;5046281;28;20044;-77
2021/06/06 02:54:47;;;;;;;35.95;30.75;;;12.00;87.20;;;;;;5047375;28;20037;-76
2021/06/06 02:57:16;;;;;;;33.80;30.10;;;12.00;87.20;;;;;;5045888;28;20037;-76
2021/06/06 03:00:00;;;;;;;33.72;29.73;;;11.90;87.20;;;;;;5045853;28;20275;-76
2021/06/06 03:02:37;;;;;;;33.47;29.42;;;11.90;87.20;;;;;;5046992;28;20061;-76
2021/06/06 03:05:05;;;;;;;35.38;30.27;;;11.80;87.20;;;;;;5043554;28;20106;-75
2021/06/06 03:07:38;;;;;;;36.50;31.05;;;11.80;87.20;;;;;;5046213;28;20127;-76
2021/06/06 03:10:07;;;;;;;33.92;29.95;;;11.80;87.30;;;;;;5048015;28;20037;-75
2021/06/06 03:12:34;;;;;;;35.97;31.50;;;11.80;87.30;;;;;;5045647;28;20025;-76
2021/06/06 03:15:02;;;;;;;35.53;30.65;;;11.70;87.00;;;;;;5045185;28;20048;-76
2021/06/06 03:17:32;;;;;;;36.30;30.85;;;11.70;87.00;;;;;;5047790;28;20045;-76
2021/06/06 03:20:01;;;;;;;36.03;32.05;;;11.60;87.20;;;;;;5045848;28;20029;-76
2021/06/06 03:22:35;;;;;;;37.08;32.25;;;11.70;87.10;;;;;;5049905;28;20045;-76
2021/06/06 03:25:06;;;;;;;35.00;31.17;;;11.70;87.20;;;;;;5047598;28;20043;-76
2021/06/06 03:27:40;;;;;;;38.33;32.47;;;11.70;87.10;;;;;;5047183;28;20052;-76
2021/06/06 03:30:19;;;;;;;38.00;32.95;;;11.60;87.20;;;;;;5046307;28;20369;-76
2021/06/06 03:32:47;;;;;;;36.90;32.67;;;11.70;87.20;;;;;;5051105;28;20053;-76
2021/06/06 03:35:14;;;;;;;38.35;33.13;;;11.60;87.10;;;;;;5044379;28;20033;-76
2021/06/06 03:37:40;;;;;;;39.92;33.00;;;11.60;87.20;;;;;;5048002;28;20029;-76
2021/06/06 03:40:08;;;;;;;36.42;31.80;;;11.60;87.30;;;;;;5045912;28;20499;-76
2021/06/06 03:42:34;;;;;;;35.80;31.60;;;11.70;87.30;;;;;;5044618;28;20473;-76
2021/06/06 03:44:59;;;;;;;37.13;31.15;;;11.60;87.20;;;;;;5047320;28;20344;-76
2021/06/06 03:47:25;;;;;;;35.72;31.25;;;11.70;87.00;;;;;;5046669;28;20048;-76
2021/06/06 03:49:51;;;;;;;36.85;31.00;;;11.70;86.90;;;;;;5044349;28;20041;-76
2021/06/06 03:52:17;;;;;;;35.60;31.70;;;11.70;86.80;;;;;;5044283;28;20534;-76
2021/06/06 03:54:42;;;;;;;35.60;31.60;;;11.70;86.70;;;;;;5047677;28;20045;-76
2021/06/06 03:57:08;;;;;;;34.20;29.45;;;11.70;86.60;;;;;;5049729;28;20082;-76
2021/06/06 03:59:35;;;;;;;37.13;31.77;;;11.80;86.50;;;;;;5052965;28;20028;-75
2021/06/06 04:02:00;;;;;;;35.05;31.25;;;11.80;86.50;;;;;;5046967;28;20041;-75
2021/06/06 04:04:26;;;;;;;33.42;29.77;;;11.80;86.50;;;;;;5045900;28;20033;-75
2021/06/06 04:06:52;;;;;;;34.90;28.27;;;11.90;86.40;;;;;;5045636;28;20035;-75
2021/06/06 04:09:17;;;;;;;34.15;29.10;;;12.00;86.20;;;;;;5060490;28;20033;-75
2021/06/06 04:11:43;;;;;;;33.25;28.33;;;12.00;86.10;;;;;;5046125;28;20048;-75
2021/06/06 04:14:09;;;;;;;35.30;30.80;;;12.00;86.00;;;;;;5041525;28;20029;-76
2021/06/06 04:16:36;;;;;;;41.97;33.08;;;12.10;85.80;;;;;;5052758;28;20480;-77
2021/06/06 04:19:03;;;;;;;44.97;34.67;;;12.10;85.80;;;;;;5044021;28;20065;-76
2021/06/06 04:21:31;;;;;;;54.17;38.67;;;12.20;85.80;;;;;;5047171;28;20033;-75
2021/06/06 04:23:57;;;;;;;53.00;40.08;;;12.30;85.70;;;;;;5041872;28;20547;-75
2021/06/06 04:26:24;;;;;;;48.25;37.28;;;12.40;85.70;;;;;;5040534;28;20698;-76
2021/06/06 04:28:49;;;;;;;50.15;37.30;;;12.50;85.80;;;;;;5041479;28;20042;-75
2021/06/06 04:31:17;;;;;;;54.05;39.80;;;12.50;85.90;;;;;;5045541;28;20033;-75
2021/06/06 04:33:44;;;;;;;85.07;41.08;;;12.50;85.90;;;;;;5044263;28;20086;-75
2021/06/06 04:36:10;;;;;;;50.50;38.28;;;12.50;86.10;;;;;;5042944;28;20033;-75
2021/06/06 04:38:35;;;;;;;53.35;39.00;;;12.60;86.10;;;;;;5044691;28;20032;-75
2021/06/06 04:41:06;;;;;;;50.50;39.65;;;12.60;86.20;;;;;;5049177;28;20033;-75
2021/06/06 04:43:32;;;;;;;45.55;38.45;;;12.60;86.40;;;;;;5041269;28;20033;-75
2021/06/06 04:45:58;;;;;;;59.95;37.80;;;12.60;86.50;;;;;;5046736;28;20044;-75
2021/06/06 04:48:32;;;;;;;172.95;45.33;;;12.60;86.80;;;;;;5046065;28;20037;-75
2021/06/06 04:51:00;;;;;;;68.38;41.83;;;12.60;86.60;;;;;;5037587;28;20362;-76
2021/06/06 04:53:25;;;;;;;48.28;40.85;;;12.60;86.90;;;;;;5044332;28;20029;-75
2021/06/06 04:55:52;;;;;;;53.83;42.00;;;12.60;87.10;;;;;;5045580;28;20041;-76
2021/06/06 04:58:20;;;;;;;58.13;43.45;;;12.70;87.00;;;;;;5044929;28;20048;-75
2021/06/06 05:00:47;;;;;;;70.78;46.25;;;12.80;87.10;;;;;;5046752;28;20033;-76
2021/06/06 05:03:14;;;;;;;50.65;41.00;;;12.90;87.40;;;;;;5042767;28;20064;-75
2021/06/06 05:05:40;;;;;;;130.85;47.45;;;13.00;87.20;;;;;;5043491;28;20056;-76
2021/06/06 05:08:06;;;;;;;105.32;44.92;;;13.10;87.10;;;;;;5044244;28;20057;-76
2021/06/06 05:10:35;;;;;;;60.50;40.22;;;13.10;86.10;;;;;;5043367;28;20033;-76
2021/06/06 05:13:01;;;;;;;53.22;39.95;;;13.20;86.20;;;;;;5042236;28;20041;-76
2021/06/06 05:15:27;;;;;;;54.42;40.55;;;13.30;86.30;;;;;;5041084;28;20042;-76
2021/06/06 05:17:54;;;;;;;130.75;41.83;;;13.40;85.90;;;;;;5045563;28;20384;-76
2021/06/06 05:20:29;;;;;;;44.13;36.72;;;13.40;85.60;;;;;;5044265;28;20052;-76
2021/06/06 05:22:55;;;;;;;59.97;40.38;;;13.50;86.10;;;;;;5044159;28;20507;-76
2021/06/06 05:25:21;;;;;;;60.20;38.67;;;13.70;86.00;;;;;;5041455;28;20041;-76
2021/06/06 05:27:47;;;;;;;43.25;37.13;;;13.70;85.20;;;;;;5043379;28;20618;-76
2021/06/06 05:30:18;;;;;;;106.55;40.22;;;13.70;85.00;;;;;;5045290;28;20074;-76
2021/06/06 05:32:44;;;;;;;66.45;40.65;;;13.70;84.40;;;;;;5045238;28;20040;-76
2021/06/06 05:35:10;;;;;;;47.22;39.95;;;13.80;85.10;;;;;;5048246;28;20032;-76
2021/06/06 05:37:36;;;;;;;55.15;39.28;;;14.00;84.30;;;;;;5049053;28;20040;-76
2021/06/06 05:40:03;;;;;;;46.00;38.72;;;14.10;84.80;;;;;;5049115;28;20041;-76
2021/06/06 05:42:29;;;;;;;53.22;39.78;;;14.30;84.20;;;;;;5047155;28;20036;-76
2021/06/06 05:44:54;;;;;;;40.03;35.72;;;14.40;83.10;;;;;;5046440;28;20040;-76
2021/06/06 05:47:20;;;;;;;108.30;41.50;;;14.50;83.60;;;;;;5047638;28;20044;-76
2021/06/06 05:49:46;;;;;;;44.63;38.38;;;14.60;83.40;;;;;;5048709;28;20737;-76
2021/06/06 05:52:11;;;;;;;45.35;39.88;;;14.70;84.10;;;;;;5047004;28;20062;-76
2021/06/06 05:54:37;;;;;;;54.70;39.78;;;14.90;83.40;;;;;;5048232;28;20102;-76
2021/06/06 05:57:03;;;;;;;44.00;38.92;;;15.10;82.50;;;;;;5045398;28;20396;-76
2021/06/06 05:59:29;;;;;;;52.33;40.05;;;15.40;82.60;;;;;;5050315;28;20032;-76
2021/06/06 06:01:55;;;;;;;42.55;37.75;;;15.60;81.40;;;;;;5048715;28;20033;-76
2021/06/06 06:04:20;;;;;;;42.83;38.22;;;15.70;81.00;;;;;;5049014;28;20037;-77
2021/06/06 06:06:46;;;;;;;43.95;39.25;;;16.10;79.80;;;;;;5041314;28;20032;-76
2021/06/06 06:09:11;;;;;;;49.30;40.15;;;16.10;79.70;;;;;;5049349;28;20029;-76
2021/06/06 06:11:37;;;;;;;43.50;37.83;;;16.10;78.90;;;;;;5045894;28;20033;-77
2021/06/06 06:14:03;;;;;;;46.92;41.83;;;16.30;79.60;;;;;;5047585;28;20091;-76
2021/06/06 06:16:33;;;;;;;44.47;39.25;;;16.50;78.90;;;;;;5048389;28;20045;-77
2021/06/06 06:19:01;;;;;;;43.90;39.22;;;16.70;78.40;;;;;;5045864;28;20044;-77
2021/06/06 06:21:28;;;;;;;44.75;39.90;;;16.80;77.60;;;;;;5062363;28;20041;-77
2021/06/06 06:23:54;;;;;;;44.85;40.10;;;16.90;76.90;;;;;;5047075;28;20037;-77
2021/06/06 06:26:21;;;;;;;46.83;41.75;;;16.90;77.20;;;;;;5047952;28;20040;-77
2021/06/06 06:28:47;;;;;;;45.40;40.60;;;16.70;78.10;;;;;;5047654;28;20091;-78
2021/06/06 06:31:14;;;;;;;42.63;38.15;;;16.70;79.40;;;;;;5045214;28;20037;-77
2021/06/06 06:33:41;;;;;;;44.85;39.78;;;16.90;78.60;;;;;;5046274;28;20491;-72
2021/06/06 06:36:09;;;;;;;43.78;39.15;;;17.10;77.90;;;;;;5045788;28;20094;-72
2021/06/06 06:38:34;;;;;;;41.72;37.35;;;17.10;78.50;;;;;;5041738;28;20707;-74
2021/06/06 06:41:01;;;;;;;43.20;38.58;;;17.10;77.60;;;;;;5037637;28;20427;-72
2021/06/06 06:43:26;;;;;;;43.78;39.15;;;17.00;78.10;;;;;;5039078;28;20087;-72
2021/06/06 06:45:54;;;;;;;40.85;36.50;;;16.90;78.70;;;;;;5042901;28;20425;-73
2021/06/06 06:48:23;;;;;;;41.03;36.63;;;16.90;78.60;;;;;;5040608;28;20047;-73
2021/06/06 06:50:50;;;;;;;38.10;33.92;;;16.90;78.00;;;;;;5045620;28;20041;-74
2021/06/06 06:53:17;;;;;;;37.65;33.55;;;17.00;77.00;;;;;;5039472;28;20043;-72
2021/06/06 06:55:43;;;;;;;40.47;36.28;;;17.10;77.00;;;;;;5041652;28;20072;-72
2021/06/06 06:58:09;;;;;;;39.15;35.05;;;17.10;76.60;;;;;;5042449;28;20064;-73
2021/06/06 07:00:45;;;;;;;36.15;32.25;;;17.30;76.80;;;;;;5046260;28;20055;-73
2021/06/06 07:03:15;;;;;;;30.27;27.10;;;17.40;75.50;;;;;;5045907;28;20041;-73
2021/06/06 07:05:42;;;;;;;32.60;28.50;;;17.30;74.30;;;;;;5060889;28;20076;-74
2021/06/06 07:08:09;;;;;;;31.08;27.60;;;17.30;74.70;;;;;;5045458;28;20044;-72
2021/06/06 07:10:37;;;;;;;28.42;25.25;;;17.60;73.30;;;;;;5048539;28;20044;-73
2021/06/06 07:13:04;;;;;;;26.00;23.17;;;17.80;73.70;;;;;;5042765;28;20384;-72
2021/06/06 07:15:30;;;;;;;26.55;23.42;;;18.00;71.20;;;;;;5045351;28;20037;-73
2021/06/06 07:17:55;;;;;;;23.45;17.33;;;17.80;70.20;;;;;;5046413;28;20041;-72
2021/06/06 07:20:26;;;;;;;22.13;17.83;;;17.60;69.00;;;;;;5043820;28;20519;-72
2021/06/06 07:22:52;;;;;;;24.40;18.27;;;17.70;68.60;;;;;;5047270;28;20033;-74
2021/06/06 07:25:20;;;;;;;23.40;19.23;;;17.70;69.60;;;;;;5045705;28;20102;-72
2021/06/06 07:27:47;;;;;;;23.83;20.08;;;17.70;69.20;;;;;;5038542;28;20037;-72
2021/06/06 07:30:22;;;;;;;24.80;19.65;;;17.80;69.50;;;;;;5046998;28;20033;-73
2021/06/06 07:32:48;;;;;;;22.77;20.02;;;18.00;70.00;;;;;;5043890;28;20045;-73
2021/06/06 07:35:16;;;;;;;24.15;18.77;;;18.00;68.80;;;;;;5045855;28;20083;-72
2021/06/06 07:37:42;;;;;;;22.67;19.50;;;18.20;67.30;;;;;;5043249;28;20037;-73
2021/06/06 07:40:10;;;;;;;24.80;20.33;;;18.30;68.30;;;;;;5045240;28;20074;-73
2021/06/06 07:42:35;;;;;;;22.23;18.85;;;18.20;68.20;;;;;;5045738;28;20555;-73
2021/06/06 07:45:04;;;;;;;23.17;19.13;;;18.60;67.40;;;;;;5045355;28;20120;-73
2021/06/06 07:47:30;;;;;;;24.38;19.42;;;18.90;66.30;;;;;;5035889;28;20037;-73
2021/06/06 07:49:56;;;;;;;20.83;18.13;;;19.10;66.00;;;;;;5044695;28;20044;-72
2021/06/06 07:52:22;;;;;;;22.02;18.83;;;19.40;65.40;;;;;;5035629;28;20167;-72
2021/06/06 07:54:47;;;;;;;22.58;19.52;;;19.10;65.20;;;;;;5040548;28;20045;-73
2021/06/06 07:57:13;;;;;;;20.70;18.48;;;18.90;66.00;;;;;;5035551;28;20037;-73
2021/06/06 07:59:39;;;;;;;21.45;18.83;;;18.80;65.60;;;;;;5039604;28;20385;-73
2021/06/06 08:02:05;;;;;;;24.33;20.02;;;18.80;66.80;;;;;;5040304;28;20066;-74
2021/06/06 08:04:31;;;;;;;19.17;17.15;;;18.90;66.70;;;;;;5040447;28;20057;-73
2021/06/06 08:06:57;;;;;;;22.02;18.27;;;19.10;64.20;;;;;;5043390;28;20052;-72
2021/06/06 08:09:23;;;;;;;21.80;19.00;;;19.20;64.90;;;;;;5043761;28;20143;-72
2021/06/06 08:11:49;;;;;;;22.63;19.90;;;19.30;66.10;;;;;;5043264;28;20465;-73
2021/06/06 08:14:15;;;;;;;22.48;19.02;;;19.40;66.00;;;;;;5042531;28;20029;-73
2021/06/06 08:16:41;;;;;;;21.45;17.50;;;19.40;64.90;;;;;;5043619;28;20146;-73
2021/06/06 08:19:07;;;;;;;21.45;17.17;;;19.50;63.50;;;;;;5044231;28;20127;-73
2021/06/06 08:21:41;;;;;;;16.75;14.65;;;19.40;62.60;;;;;;5044218;28;20152;-72
2021/06/06 08:24:08;;;;;;;19.30;15.00;;;19.30;63.60;;;;;;5041606;28;20025;-72
2021/06/06 08:26:33;;;;;;;19.98;16.63;;;19.60;62.90;;;;;;5043509;28;20287;-73
2021/06/06 08:29:00;;;;;;;19.67;15.98;;;19.90;63.10;;;;;;5045169;28;20029;-73
2021/06/06 08:31:29;;;;;;;22.85;17.20;;;19.80;60.60;;;;;;5040300;28;20295;-72
2021/06/06 08:33:55;;;;;;;18.05;15.13;;;19.60;61.80;;;;;;5043599;28;20132;-72
2021/06/06 08:36:28;;;;;;;20.00;17.90;;;19.90;61.80;;;;;;5042829;28;20117;-72
2021/06/06 08:38:55;;;;;;;20.23;17.83;;;20.00;62.10;;;;;;5042356;28;20049;-72
2021/06/06 08:41:26;;;;;;;21.83;18.75;;;19.90;62.80;;;;;;5045305;28;20444;-73
2021/06/06 08:44:22;;;;;;;20.23;17.77;;;19.90;61.90;;;;;;5043966;28;20021;-73
2021/06/06 08:47:02;;;;;;;23.60;19.25;;;20.00;62.50;;;;;;5036419;28;20041;-73
2021/06/06 08:49:40;;;;;;;22.05;19.52;;;20.00;60.90;;;;;;5047338;28;20408;-74
2021/06/06 08:52:27;;;;;;;22.40;20.10;;;20.00;62.70;;;;;;5041215;28;20037;-73
2021/06/06 08:55:04;;;;;;;23.88;21.20;;;20.00;62.20;;;;;;5044580;28;20064;-72
2021/06/06 08:57:30;;;;;;;23.45;21.00;;;20.30;63.60;;;;;;5041002;28;20037;-73
2021/06/06 08:59:57;;;;;;;25.27;21.63;;;20.20;61.20;;;;;;5045953;28;20552;-72
2021/06/06 09:02:29;;;;;;;25.33;22.58;;;20.30;61.30;;;;;;5042796;28;20040;-72
2021/06/06 09:04:55;;;;;;;26.45;22.60;;;20.10;62.00;;;;;;5039635;28;21757;-72
2021/06/06 09:07:42;;;;;;;23.98;21.48;;;20.10;62.40;;;;;;5042291;28;20044;-72
2021/06/06 09:10:14;;;;;;;24.55;21.98;;;19.80;62.80;;;;;;5039145;28;20805;-73
2021/06/06 09:12:41;;;;;;;25.52;22.75;;;20.10;62.80;;;;;;5044218;28;20033;-74
2021/06/06 09:15:10;;;;;;;25.50;22.75;;;20.20;63.50;;;;;;5044308;28;20037;-73
2021/06/06 09:17:46;;;;;;;24.08;21.45;;;20.30;61.50;;;;;;5041693;28;20025;-73
2021/06/06 09:20:24;;;;;;;24.95;22.35;;;20.60;61.70;;;;;;5044172;28;20619;-73
2021/06/06 09:22:50;;;;;;;24.45;20.98;;;20.80;58.70;;;;;;5044580;28;20079;-73
2021/06/06 09:25:29;;;;;;;23.92;21.27;;;20.50;58.60;;;;;;5043512;28;20041;-72
2021/06/06 09:28:13;;;;;;;24.83;22.15;;;20.60;60.50;;;;;;5041891;28;20037;-73
2021/06/06 09:30:41;;;;;;;24.25;21.75;;;20.60;59.90;;;;;;5041160;28;20033;-73
2021/06/06 09:33:33;;;;;;;23.58;21.08;;;21.00;59.80;;;;;;5055977;28;20053;-72
2021/06/06 09:36:02;;;;;;;24.20;21.65;;;21.00;58.60;;;;;;5041470;28;20451;-72
2021/06/06 09:38:30;;;;;;;27.02;23.23;;;20.70;58.00;;;;;;5039590;28;20500;-72
2021/06/06 09:41:13;;;;;;;23.00;20.58;;;20.70;59.80;;;;;;5047156;28;20550;-72
2021/06/06 09:43:40;;;;;;;24.50;21.98;;;20.80;58.60;;;;;;5041826;28;20037;-73
2021/06/06 09:46:12;;;;;;;23.77;21.25;;;21.00;60.20;;;;;;5042449;28;20081;-73
2021/06/06 09:48:41;;;;;;;23.98;21.38;;;21.10;57.70;;;;;;5040373;28;20487;-73
2021/06/06 09:51:26;;;;;;;18.45;16.42;;;21.50;57.30;;;;;;5041621;28;20048;-73
2021/06/06 09:53:56;;;;;;;22.15;19.67;;;21.10;51.90;;;;;;5046437;28;20454;-73
2021/06/06 09:56:26;;;;;;;22.38;19.98;;;21.30;56.20;;;;;;5035319;28;20068;-73
2021/06/06 09:58:53;;;;;;;20.42;17.30;;;21.10;55.60;;;;;;5042133;28;20041;-72
2021/06/06 10:01:36;;;;;;;19.58;16.38;;;21.70;53.90;;;;;;5041152;28;20025;-72
2021/06/06 10:04:05;;;;;;;21.70;19.50;;;21.50;54.00;;;;;;5035896;28;20088;-73
2021/06/06 10:06:38;;;;;;;20.58;18.10;;;21.70;53.40;;;;;;5042267;28;20135;-72
2021/06/06 10:09:07;;;;;;;20.38;17.95;;;22.00;51.80;;;;;;5045838;28;20059;-73
2021/06/06 10:11:55;;;;;;;18.48;15.70;;;21.80;51.70;;;;;;5045805;28;20549;-72
2021/06/06 10:14:50;;;;;;;16.20;13.48;;;22.00;51.50;;;;;;5039837;28;20388;-71
2021/06/06 10:17:38;;;;;;;15.50;12.38;;;22.00;47.60;;;;;;5040983;28;20045;-72
2021/06/06 10:20:26;;;;;;;15.60;13.07;;;21.90;45.80;;;;;;5044008;28;20522;-73
2021/06/06 10:23:02;;;;;;;17.13;12.82;;;22.20;48.10;;;;;;5044293;28;20048;-73
2021/06/06 10:25:53;;;;;;;15.68;13.50;;;22.10;48.30;;;;;;5042451;28;20124;-72
2021/06/06 10:28:25;;;;;;;14.25;11.43;;;22.30;48.80;;;;;;5039950;28;20136;-73
2021/06/06 10:31:03;;;;;;;14.52;11.98;;;22.10;46.50;;;;;;5040901;28;20653;-73
2021/06/06 10:33:59;;;;;;;15.05;12.00;;;22.10;47.00;;;;;;5046618;28;20065;-74
2021/06/06 10:36:27;;;;;;;14.75;12.88;;;22.30;46.60;;;;;;5038058;28;20549;-72
2021/06/06 10:38:53;;;;;;;13.93;11.38;;;22.10;47.70;;;;;;5035801;28;20041;-72
2021/06/06 10:41:30;;;;;;;12.77;10.45;;;21.90;47.70;;;;;;5035082;28;20061;-72
2021/06/06 10:44:15;;;;;;;16.00;13.68;;;22.20;49.50;;;;;;5039040;28;20051;-73
2021/06/06 10:46:42;;;;;;;16.02;14.32;;;22.60;48.50;;;;;;5039413;28;20033;-72
2021/06/06 10:49:17;;;;;;;19.75;17.48;;;22.00;51.10;;;;;;5044003;28;20037;-73
2021/06/06 10:52:07;;;;;;;19.08;17.08;;;22.10;50.80;;;;;;5038324;28;20040;-72
2021/06/06 10:54:38;;;;;;;15.32;13.25;;;22.60;49.90;;;;;;5044063;28;20033;-73
2021/06/06 10:57:11;;;;;;;16.10;13.07;;;22.90;48.10;;;;;;5046097;28;20111;-72
2021/06/06 10:59:41;;;;;;;15.75;13.70;;;22.60;47.50;;;;;;5049935;28;20040;-72
2021/06/06 11:02:13;;;;;;;14.02;11.85;;;22.90;46.90;;;;;;5041208;28;20118;-72
2021/06/06 11:04:52;;;;;;;15.13;12.70;;;22.50;48.10;;;;;;5038087;28;20381;-74
2021/06/06 11:07:18;;;;;;;15.60;11.57;;;22.60;47.30;;;;;;5043898;28;20432;-75
2021/06/06 11:09:56;;;;;;;13.48;10.93;;;22.60;48.20;;;;;;5043375;28;20048;-72
2021/06/06 11:12:33;;;;;;;10.90;8.05;;;23.00;47.40;;;;;;5037323;28;20112;-73
2021/06/06 11:15:00;;;;;;;10.02;7.63;;;23.30;43.90;;;;;;5045238;28;20135;-73
2021/06/06 11:17:34;;;;;;;9.57;6.45;;;23.20;45.70;;;;;;5044108;28;20068;-74
2021/06/06 11:20:11;;;;;;;9.70;6.90;;;23.00;43.70;;;;;;5042258;28;20037;-73
2021/06/06 11:22:41;;;;;;;11.35;8.38;;;22.80;43.60;;;;;;5042456;28;20056;-72
2021/06/06 11:25:23;;;;;;;11.52;8.90;;;22.90;44.50;;;;;;5044767;28;20032;-71
2021/06/06 11:28:01;;;;;;;10.45;7.28;;;23.10;46.40;;;;;;5049283;28;20036;-72
2021/06/06 11:30:27;;;;;;;9.00;6.20;;;23.60;42.30;;;;;;5037530;28;20040;-72
2021/06/06 11:33:06;;;;;;;9.20;6.00;;;23.50;42.50;;;;;;5037898;28;20071;-75
2021/06/06 11:35:35;;;;;;;8.88;5.00;;;23.50;42.50;;;;;;5040065;28;20048;-72
2021/06/06 11:38:27;;;;;;;8.30;5.72;;;23.80;41.70;;;;;;5031908;28;20484;-72
2021/06/06 11:41:16;;;;;;;8.43;5.82;;;23.50;42.70;;;;;;5036814;28;20132;-73
2021/06/06 11:43:48;;;;;;;8.02;5.18;;;23.30;42.20;;;;;;5039080;28;20033;-73
2021/06/06 11:46:39;;;;;;;8.02;5.18;;;23.40;41.90;;;;;;5038374;28;20160;-72
2021/06/06 11:49:42;;;;;;;9.00;5.00;;;22.90;42.20;;;;;;5041873;28;20120;-73
2021/06/06 11:52:16;;;;;;;7.65;4.88;;;23.10;40.80;;;;;;5035726;28;20030;-73
2021/06/06 11:55:08;;;;;;;7.85;4.32;;;23.50;41.60;;;;;;5036168;28;20124;-73
2021/06/06 11:57:39;;;;;;;7.40;4.13;;;23.40;41.50;;;;;;5035753;28;20052;-73
2021/06/06 12:00:20;;;;;;;7.13;4.20;;;23.30;39.70;;;;;;5034782;28;20048;-72
2021/06/06 12:02:46;;;;;;;6.75;3.85;;;23.40;40.50;;;;;;5038140;28;20417;-78
2021/06/06 12:05:17;;;;;;;6.35;3.47;;;23.50;39.40;;;;;;5039528;28;20045;-79
2021/06/06 12:07:44;;;;;;;5.55;3.50;;;23.50;39.80;;;;;;5040598;28;20036;-80
2021/06/06 12:10:48;;;;;;;7.30;3.92;;;23.50;40.00;;;;;;5035708;28;20051;-72
2021/06/06 12:13:20;;;;;;;9.00;4.22;;;23.40;39.30;;;;;;5032691;28;20045;-74
2021/06/06 12:15:46;;;;;;;7.13;4.05;;;23.50;40.60;;;;;;5037100;28;20127;-73
2021/06/06 12:18:24;;;;;;;6.88;3.50;;;23.50;39.80;;;;;;5036026;28;20052;-72
2021/06/06 12:20:58;;;;;;;5.28;3.20;;;23.80;41.10;;;;;;5035492;28;20159;-74
2021/06/06 12:23:30;;;;;;;5.78;2.97;;;24.10;39.30;;;;;;5035091;28;20045;-73
2021/06/06 12:26:16;;;;;;;4.95;2.60;;;23.60;37.50;;;;;;5033835;28;20404;-72
2021/06/06 12:28:48;;;;;;;6.05;3.10;;;23.60;39.00;;;;;;5036275;28;20143;-72
2021/06/06 12:31:34;;;;;;;7.93;2.80;;;23.60;37.90;;;;;;5036427;28;20029;-73
2021/06/06 12:34:20;;;;;;;5.95;2.88;;;23.60;35.70;;;;;;5032408;28;20488;-72
2021/06/06 12:36:46;;;;;;;5.38;3.15;;;23.70;36.30;;;;;;5035721;28;20505;-73
2021/06/06 12:39:17;;;;;;;6.28;2.42;;;23.60;37.60;;;;;;5034782;28;20047;-73
2021/06/06 12:41:45;;;;;;;4.57;2.58;;;23.80;38.40;;;;;;5035301;28;20037;-74
2021/06/06 12:44:14;;;;;;;6.03;3.58;;;23.60;38.80;;;;;;5035665;28;20045;-72
2021/06/06 12:47:07;;;;;;;7.10;3.20;;;23.30;38.40;;;;;;5035318;28;20542;-72